createdAt,value
2022-12-01T00:00:59.397Z,91.68
2022-12-01T00:04:02.170Z,92.02
2022-12-01T00:07:06.191Z,91.58
2022-12-01T00:10:26.632Z,91.48
2022-12-01T00:13:30.330Z,91.90
2022-12-01T00:16:34.180Z,91.51
2022-12-01T00:19:37.653Z,91.91
2022-12-01T00:22:47.769Z,91.60
2022-12-01T00:25:50.533Z,91.73
2022-12-01T00:28:58.995Z,91.89
2022-12-01T00:32:01.897Z,91.68
2022-12-01T00:35:05.744Z,92.11
2022-12-01T00:38:08.622Z,91.23
2022-12-01T00:41:11.650Z,91.69
2022-12-01T00:44:14.420Z,91.92
2022-12-01T00:47:17.373Z,92.10
2022-12-01T00:50:20.253Z,92.15
2022-12-01T00:53:24.752Z,92.57
2022-12-01T00:56:27.604Z,92.72
2022-12-01T00:59:30.485Z,91.89
2022-12-01T01:02:33.290Z,91.55
2022-12-01T01:05:41.034Z,92.01
2022-12-01T01:08:43.869Z,92.19
2022-12-01T01:11:46.653Z,91.55
2022-12-01T01:14:49.410Z,91.52
2022-12-01T01:17:52.217Z,91.49
2022-12-01T01:20:59.257Z,91.21
2022-12-01T01:24:02.239Z,91.18
2022-12-01T01:27:06.287Z,91.17
2022-12-01T01:30:09.581Z,91.57
2022-12-01T01:33:12.480Z,91.23
2022-12-01T01:36:16.081Z,91.37
2022-12-01T01:39:18.950Z,91.28
2022-12-01T01:42:22.280Z,91.28
2022-12-01T01:45:29.271Z,91.38
2022-12-01T01:48:33.805Z,91.09
2022-12-01T01:51:47.071Z,90.89
2022-12-01T01:54:54.236Z,91.03
2022-12-01T01:57:57.619Z,91.27
2022-12-01T02:01:00.806Z,90.94
2022-12-01T02:04:04.357Z,90.59
2022-12-01T02:07:08.561Z,90.75
2022-12-01T02:10:14.788Z,91.05
2022-12-01T02:13:33.469Z,90.92
2022-12-01T02:16:50.126Z,91.30
2022-12-01T02:20:17.741Z,91.02
2022-12-01T02:23:51.212Z,90.86
2022-12-01T02:27:07.216Z,90.38
2022-12-01T02:30:36.526Z,90.40
2022-12-01T02:33:43.918Z,90.40
2022-12-01T02:36:53.307Z,90.17
2022-12-01T02:40:06.443Z,90.19
2022-12-01T02:43:31.652Z,90.19
2022-12-01T02:46:40.032Z,89.76
2022-12-01T02:49:50.046Z,90.15
2022-12-01T02:52:54.466Z,90.33
2022-12-01T02:55:59.282Z,89.47
2022-12-01T02:59:02.185Z,90.07
2022-12-01T03:02:43.471Z,89.93
2022-12-01T03:06:03.046Z,89.69
2022-12-01T03:09:24.989Z,89.80
2022-12-01T03:12:42.762Z,90.01
2022-12-01T03:16:27.552Z,89.80
2022-12-01T03:19:40.087Z,89.66
2022-12-01T03:22:51.550Z,89.87
2022-12-01T03:25:56.829Z,89.94
2022-12-01T03:29:14.966Z,89.90
2022-12-01T03:32:28.376Z,89.69
2022-12-01T03:35:41.986Z,89.42
2022-12-01T03:38:48.993Z,90.10
2022-12-01T03:42:04.865Z,89.82
2022-12-01T03:45:12.117Z,90.30
2022-12-01T03:48:15.096Z,90.07
2022-12-01T03:51:39.575Z,90.52
2022-12-01T03:55:06.831Z,90.44
2022-12-01T03:58:14.802Z,90.23
2022-12-01T04:01:17.784Z,90.51
2022-12-01T04:04:20.803Z,90.17
2022-12-01T04:07:23.785Z,90.77
2022-12-01T04:10:26.929Z,91.08
2022-12-01T04:13:29.761Z,91.00
2022-12-01T04:16:32.791Z,91.24
2022-12-01T04:19:35.862Z,90.67
2022-12-01T04:22:39.187Z,90.45
2022-12-01T04:25:41.991Z,90.37
2022-12-01T04:28:44.830Z,90.39
2022-12-01T04:31:47.808Z,90.50
2022-12-01T04:34:50.612Z,91.30
2022-12-01T04:37:53.507Z,90.62
2022-12-01T04:40:56.424Z,90.55
2022-12-01T04:43:59.178Z,90.15
2022-12-01T04:47:03.350Z,90.34
2022-12-01T04:50:06.714Z,89.85
2022-12-01T04:53:09.459Z,90.84
2022-12-01T04:56:12.395Z,90.91
2022-12-01T04:59:15.233Z,90.59
2022-12-01T05:02:18.046Z,90.75
2022-12-01T05:05:20.865Z,90.75
2022-12-01T05:08:23.709Z,90.86
2022-12-01T05:11:28.707Z,90.73
2022-12-01T05:14:31.460Z,90.77
2022-12-01T05:17:37.055Z,89.82
2022-12-01T05:20:58.207Z,90.61
2022-12-01T05:24:00.879Z,90.54
2022-12-01T05:27:03.682Z,91.04
2022-12-01T05:30:07.363Z,90.07
2022-12-01T05:33:10.206Z,90.74
2022-12-01T05:36:13.013Z,91.23
2022-12-01T05:39:15.910Z,91.07
2022-12-01T05:42:18.593Z,91.23
2022-12-01T05:45:21.352Z,91.01
2022-12-01T05:48:24.767Z,90.75
2022-12-01T05:51:27.624Z,90.88
2022-12-01T05:54:30.694Z,90.76
2022-12-01T05:57:34.065Z,91.17
2022-12-01T06:00:45.043Z,90.51
2022-12-01T06:03:48.766Z,90.95
2022-12-01T06:06:51.782Z,91.19
2022-12-01T06:09:54.593Z,90.92
2022-12-01T06:12:57.386Z,90.43
2022-12-01T06:16:03.277Z,90.49
2022-12-01T06:19:06.131Z,90.87
2022-12-01T06:22:09.087Z,91.37
2022-12-01T06:25:11.971Z,91.03
2022-12-01T06:28:15.132Z,90.60
2022-12-01T06:31:18.046Z,90.08
2022-12-01T06:34:20.882Z,89.98
2022-12-01T06:37:23.743Z,90.20
2022-12-01T06:40:27.687Z,90.53
2022-12-01T06:43:30.804Z,90.22
2022-12-01T06:46:34.458Z,90.50
2022-12-01T06:49:38.227Z,89.56
2022-12-01T06:52:41.000Z,90.40
2022-12-01T06:55:43.930Z,90.17
2022-12-01T06:58:49.724Z,90.78
2022-12-01T07:01:53.207Z,90.59
2022-12-01T07:04:56.638Z,89.96
2022-12-01T07:08:04.546Z,89.31
2022-12-01T07:11:10.031Z,89.21
2022-12-01T07:14:27.177Z,90.02
2022-12-01T07:17:33.616Z,90.16
2022-12-01T07:20:36.618Z,89.41
2022-12-01T07:23:40.153Z,89.39
2022-12-01T07:26:43.762Z,89.23
2022-12-01T07:29:47.528Z,88.89
2022-12-01T07:32:50.937Z,89.64
2022-12-01T07:35:56.376Z,88.92
2022-12-01T07:39:00.570Z,88.25
2022-12-01T07:42:04.470Z,87.78
2022-12-01T07:45:08.849Z,87.96
2022-12-01T07:48:11.703Z,86.99
2022-12-01T07:51:16.870Z,86.68
2022-12-01T07:54:21.437Z,85.65
2022-12-01T07:57:24.581Z,85.78
2022-12-01T08:00:27.702Z,85.58
2022-12-01T08:03:32.384Z,86.02
2022-12-01T08:06:39.966Z,84.84
2022-12-01T08:09:45.791Z,83.62
2022-12-01T08:12:50.302Z,83.33
2022-12-01T08:15:56.812Z,82.51
2022-12-01T08:19:03.413Z,81.06
2022-12-01T08:22:09.404Z,80.37
2022-12-01T08:25:12.270Z,77.91
2022-12-01T08:28:15.605Z,73.47
2022-12-01T08:31:20.298Z,71.13
2022-12-01T08:34:24.310Z,70.25
2022-12-01T08:37:27.943Z,69.24
2022-12-01T08:40:30.986Z,70.66
2022-12-01T08:43:56.724Z,70.84
2022-12-01T08:46:58.066Z,69.63
2022-12-01T08:50:01.294Z,71.67
2022-12-01T08:53:04.246Z,71.31
2022-12-01T08:56:11.295Z,74.06
2022-12-01T08:59:14.381Z,74.52
2022-12-01T09:02:26.827Z,72.63
2022-12-01T09:05:31.143Z,72.61
2022-12-01T09:08:36.138Z,72.85
2022-12-01T09:11:48.127Z,75.64
2022-12-01T09:14:51.334Z,66.26
2022-12-01T09:17:57.265Z,57.52
2022-12-01T09:21:01.108Z,59.35
2022-12-01T09:24:05.847Z,61.51
2022-12-01T09:27:10.408Z,64.28
2022-12-01T09:30:14.532Z,66.90
2022-12-01T09:33:18.530Z,66.87
2022-12-01T09:36:22.311Z,67.94
2022-12-01T09:39:25.508Z,68.17
2022-12-01T09:42:33.835Z,68.65
2022-12-01T09:45:44.389Z,67.17
2022-12-01T09:48:49.807Z,70.08
2022-12-01T09:51:54.507Z,69.66
2022-12-01T09:55:00.801Z,69.46
2022-12-01T09:58:06.419Z,70.20
2022-12-01T10:01:17.694Z,67.83
2022-12-01T10:04:42.907Z,68.08
2022-12-01T10:07:54.317Z,68.64
2022-12-01T10:11:05.868Z,68.88
2022-12-01T10:14:20.217Z,69.43
2022-12-01T10:17:58.175Z,68.86
2022-12-01T10:21:25.576Z,67.87
2022-12-01T10:24:52.278Z,68.25
2022-12-01T10:28:31.226Z,65.51
2022-12-01T10:31:53.622Z,67.34
2022-12-01T10:35:03.930Z,68.36
2022-12-01T10:38:19.832Z,69.54
2022-12-01T10:41:26.255Z,69.00
2022-12-01T10:44:34.156Z,69.57
2022-12-01T10:47:38.334Z,70.07
2022-12-01T10:50:47.626Z,71.21
2022-12-01T10:53:59.465Z,69.82
2022-12-01T10:57:03.835Z,72.40
2022-12-01T11:00:09.195Z,73.45
2022-12-01T11:03:29.771Z,74.43
2022-12-01T11:06:35.413Z,73.83
2022-12-01T11:09:38.697Z,71.24
2022-12-01T11:12:43.827Z,69.93
2022-12-01T11:16:07.505Z,68.50
2022-12-01T11:19:34.171Z,68.32
2022-12-01T11:22:37.749Z,68.67
2022-12-01T11:25:41.068Z,69.44
2022-12-01T11:28:52.106Z,68.64
2022-12-01T11:31:55.542Z,70.09
2022-12-01T11:35:03.022Z,71.13
2022-12-01T11:41:41.301Z,68.67
2022-12-01T11:45:03.502Z,68.31
2022-12-01T11:48:12.494Z,67.71
2022-12-01T11:51:18.405Z,69.54
2022-12-01T11:54:26.624Z,69.89
2022-12-01T11:57:35.026Z,72.04
2022-12-01T12:00:50.311Z,71.07
2022-12-01T12:04:12.717Z,69.27
2022-12-01T12:07:28.287Z,67.22
2022-12-01T12:11:00.865Z,67.22
2022-12-01T12:14:28.522Z,67.19
2022-12-01T12:17:49.246Z,68.29
2022-12-01T12:21:10.622Z,69.37
2022-12-01T12:24:25.807Z,70.36
2022-12-01T12:27:34.559Z,70.73
2022-12-01T12:30:49.409Z,70.26
2022-12-01T12:34:24.040Z,71.04
2022-12-01T12:37:41.530Z,71.53
2022-12-01T12:40:53.639Z,72.23
2022-12-01T12:44:08.881Z,71.95
2022-12-01T12:47:20.176Z,71.73
2022-12-01T12:51:03.689Z,72.61
2022-12-01T12:54:12.518Z,72.59
2022-12-01T12:57:43.688Z,72.06
2022-12-01T13:00:52.558Z,73.22
2022-12-01T13:04:03.872Z,72.04
2022-12-01T13:07:29.159Z,71.52
2022-12-01T13:10:38.243Z,71.07
2022-12-01T13:14:01.262Z,72.15
2022-12-01T13:17:21.759Z,70.46
2022-12-01T13:20:29.991Z,71.50
2022-12-01T13:23:34.525Z,72.09
2022-12-01T13:26:40.222Z,72.08
2022-12-01T13:29:52.558Z,71.64
2022-12-01T13:33:05.380Z,72.65
2022-12-01T13:39:37.344Z,72.31
2022-12-01T13:42:40.804Z,72.62
2022-12-01T13:45:43.907Z,72.83
2022-12-01T13:48:46.872Z,74.19
2022-12-01T13:52:26.921Z,75.81
2022-12-01T13:55:30.032Z,75.36
2022-12-01T13:58:35.733Z,76.00
2022-12-01T14:01:43.838Z,75.91
2022-12-01T14:04:47.269Z,76.46
2022-12-01T14:07:54.675Z,76.56
2022-12-01T14:11:00.223Z,77.32
2022-12-01T14:14:09.119Z,76.85
2022-12-01T14:17:29.168Z,77.84
2022-12-01T14:20:37.979Z,78.14
2022-12-01T14:24:01.178Z,82.32
2022-12-01T14:27:06.118Z,76.99
2022-12-01T14:30:40.406Z,76.83
2022-12-01T14:33:45.205Z,77.92
2022-12-01T14:36:57.124Z,78.45
2022-12-01T14:40:08.582Z,78.61
2022-12-01T14:43:31.316Z,78.54
2022-12-01T14:46:49.266Z,79.29
2022-12-01T14:50:13.443Z,80.03
2022-12-01T14:53:25.179Z,80.82
2022-12-01T14:56:28.727Z,80.97
2022-12-01T14:59:31.722Z,81.87
2022-12-01T15:02:39.730Z,81.64
2022-12-01T15:05:44.357Z,82.15
2022-12-01T15:09:31.505Z,82.49
2022-12-01T15:12:29.727Z,82.71
2022-12-01T15:15:32.682Z,82.84
2022-12-01T15:18:39.696Z,82.86
2022-12-01T15:21:42.610Z,84.88
2022-12-01T15:24:46.076Z,85.15
2022-12-01T15:28:12.103Z,84.82
2022-12-01T15:31:16.237Z,84.75
2022-12-01T15:34:42.295Z,85.28
2022-12-01T15:37:46.271Z,85.47
2022-12-01T15:44:22.178Z,85.39
2022-12-01T15:47:38.437Z,85.46
2022-12-01T15:50:46.456Z,84.93
2022-12-01T15:53:54.521Z,84.35
2022-12-01T15:56:59.340Z,84.53
2022-12-01T16:00:02.498Z,85.13
2022-12-01T16:03:15.942Z,84.77
2022-12-01T16:06:20.650Z,84.30
2022-12-01T16:09:42.072Z,84.58
2022-12-01T16:12:44.865Z,85.12
2022-12-01T16:15:48.126Z,85.73
2022-12-01T16:18:57.212Z,85.06
2022-12-01T16:22:14.270Z,86.06
2022-12-01T16:25:32.849Z,86.48
2022-12-01T16:28:36.189Z,85.83
2022-12-01T16:31:58.754Z,86.28
2022-12-01T16:35:04.430Z,86.13
2022-12-01T16:38:19.643Z,86.64
2022-12-01T16:41:37.896Z,86.84
2022-12-01T16:44:42.821Z,86.73
2022-12-01T16:47:48.338Z,86.93
2022-12-01T16:50:52.156Z,86.83
2022-12-01T16:53:56.536Z,86.72
2022-12-01T16:56:59.430Z,86.87
2022-12-01T17:00:02.478Z,86.68
2022-12-01T17:03:12.006Z,86.81
2022-12-01T17:06:18.551Z,86.58
2022-12-01T17:09:22.851Z,86.47
2022-12-01T17:12:26.868Z,87.11
2022-12-01T17:15:29.764Z,86.85
2022-12-01T17:18:35.744Z,87.45
2022-12-01T17:21:38.486Z,86.74
2022-12-01T17:24:41.538Z,86.76
2022-12-01T17:27:44.361Z,87.31
2022-12-01T17:30:47.403Z,87.37
2022-12-01T17:33:51.727Z,87.84
2022-12-01T17:36:54.490Z,88.20
2022-12-01T17:39:57.507Z,88.35
2022-12-01T17:43:00.572Z,88.80
2022-12-01T17:46:05.720Z,88.41
2022-12-01T17:49:10.790Z,88.80
2022-12-01T17:52:13.651Z,89.70
2022-12-01T17:55:17.756Z,89.63
2022-12-01T17:58:21.757Z,89.56
2022-12-01T18:01:29.978Z,89.95
2022-12-01T18:04:34.836Z,90.86
2022-12-01T18:07:37.992Z,91.26
2022-12-01T18:10:40.780Z,91.79
2022-12-01T18:13:47.134Z,90.92
2022-12-01T18:16:50.612Z,90.47
2022-12-01T18:19:53.655Z,91.15
2022-12-01T18:22:56.655Z,90.94
2022-12-01T18:26:09.685Z,91.10
2022-12-01T18:29:26.008Z,91.54
2022-12-01T18:32:29.313Z,91.46
2022-12-01T18:35:32.390Z,91.76
2022-12-01T18:38:35.675Z,92.18
2022-12-01T18:41:39.246Z,91.97
2022-12-01T18:44:42.511Z,92.00
2022-12-01T18:47:45.825Z,92.38
2022-12-01T18:50:48.838Z,92.78
2022-12-01T18:53:55.074Z,92.30
2022-12-01T18:56:59.126Z,92.37
2022-12-01T19:00:04.627Z,92.83
2022-12-01T19:03:07.890Z,92.68
2022-12-01T19:06:13.111Z,92.86
2022-12-01T19:09:17.627Z,93.03
2022-12-01T19:12:20.931Z,93.05
2022-12-01T19:15:23.796Z,93.04
2022-12-01T19:18:27.068Z,93.52
2022-12-01T19:21:30.249Z,93.72
2022-12-01T19:24:35.592Z,93.27
2022-12-01T19:27:41.081Z,92.66
2022-12-01T19:30:48.075Z,92.82
2022-12-01T19:33:53.488Z,93.13
2022-12-01T19:36:56.970Z,93.43
2022-12-01T19:40:00.270Z,93.63
2022-12-01T19:43:03.351Z,94.20
2022-12-01T19:46:12.961Z,93.51
2022-12-01T19:49:15.922Z,93.68
2022-12-01T19:52:19.173Z,93.52
2022-12-01T19:55:22.010Z,93.05
2022-12-01T19:58:25.671Z,93.03
2022-12-01T20:01:29.398Z,93.42
2022-12-01T20:04:32.376Z,92.98
2022-12-01T20:07:35.550Z,92.11
2022-12-01T20:10:38.345Z,91.73
2022-12-01T20:13:43.095Z,91.76
2022-12-01T20:16:46.282Z,91.86
2022-12-01T20:19:49.346Z,91.16
2022-12-01T20:22:52.399Z,90.76
2022-12-01T20:25:59.183Z,91.50
2022-12-01T20:29:05.515Z,90.78
2022-12-01T20:32:08.714Z,90.57
2022-12-01T20:35:12.266Z,90.07
2022-12-01T20:38:15.565Z,89.58
2022-12-01T20:41:18.498Z,89.96
2022-12-01T20:44:22.311Z,90.30
2022-12-01T20:47:25.479Z,90.75
2022-12-01T20:50:28.589Z,90.64
2022-12-01T20:53:31.941Z,90.82
2022-12-01T20:56:35.052Z,91.56
2022-12-01T20:59:38.045Z,91.84
2022-12-01T21:02:41.206Z,91.88
2022-12-01T21:05:44.731Z,92.42
2022-12-01T21:08:49.848Z,92.23
2022-12-01T21:12:12.171Z,91.72
2022-12-01T21:15:25.246Z,92.12
2022-12-01T21:18:34.860Z,91.29
2022-12-01T21:21:41.811Z,91.70
2022-12-01T21:24:50.006Z,91.55
2022-12-01T21:27:58.259Z,91.42
2022-12-01T21:31:12.661Z,91.04
2022-12-01T21:34:22.644Z,91.55
2022-12-01T21:37:25.639Z,90.38
2022-12-01T21:40:28.842Z,90.16
2022-12-01T21:43:36.694Z,90.87
2022-12-01T21:46:42.493Z,90.93
2022-12-01T21:49:46.103Z,90.78
2022-12-01T21:52:49.559Z,90.75
2022-12-01T21:55:52.485Z,90.26
2022-12-01T21:58:59.426Z,90.39
2022-12-01T22:02:07.970Z,89.84
2022-12-01T22:05:41.644Z,89.52
2022-12-01T22:08:48.611Z,89.65
2022-12-01T22:11:56.940Z,89.83
2022-12-01T22:15:02.083Z,89.98
2022-12-01T22:18:25.618Z,89.24
2022-12-01T22:21:32.604Z,89.11
2022-12-01T22:24:46.867Z,88.75
2022-12-01T22:27:49.733Z,88.69
2022-12-01T22:30:52.623Z,88.67
2022-12-01T22:34:03.366Z,89.35
2022-12-01T22:37:21.759Z,89.13
2022-12-01T22:40:48.312Z,89.67
2022-12-01T22:43:52.343Z,90.80
2022-12-01T22:47:01.398Z,89.93
2022-12-01T22:50:29.050Z,90.62
2022-12-01T22:53:31.812Z,90.16
2022-12-01T22:56:46.589Z,90.40
2022-12-01T22:59:50.473Z,90.38
2022-12-01T23:02:55.800Z,90.43
2022-12-01T23:05:58.727Z,90.64
2022-12-01T23:09:02.142Z,90.72
2022-12-01T23:12:35.199Z,90.16
2022-12-01T23:15:38.106Z,90.43
2022-12-01T23:18:41.185Z,90.91
2022-12-01T23:21:44.089Z,90.55
2022-12-01T23:24:47.162Z,90.38
2022-12-01T23:27:53.150Z,91.09
2022-12-01T23:30:59.216Z,91.29
2022-12-01T23:34:01.971Z,91.45
2022-12-01T23:37:16.821Z,91.43
2022-12-01T23:40:23.483Z,91.95
2022-12-01T23:43:30.184Z,92.26
2022-12-01T23:46:33.060Z,91.33
2022-12-01T23:49:36.207Z,91.36
2022-12-01T23:52:39.233Z,91.10
2022-12-01T23:55:42.010Z,91.76
2022-12-01T23:58:45.541Z,92.33
